Time;durP1;ratioP1;P1;durP2;ratioP2;P2;SDS_P1;SDS_P2;PMS_P1;PMS_P2;Temp;Humidity;BMP_temperature;BMP_pressure;BME280_temperature;BME280_humidity;BME280_pressure;Samples;Min_cycle;Max_cycle;Signal;HPM_P1;HPM_P2
2021/05/10 00:00:31;;;;;;;1.15;0.70;;;;;;;;;;5060866;28;20038;-60
2021/05/10 00:02:57;;;;;;;1.02;0.70;;;;;;;;;;5032684;28;20049;-60
2021/05/10 00:05:22;;;;;;;1.13;0.70;;;;;;;;;;5032172;28;20030;-60
2021/05/10 00:07:48;;;;;;;1.40;0.80;;;;;;;;;;5033648;28;20060;-60
2021/05/10 00:10:13;;;;;;;0.73;0.60;;;;;;;;;;5031508;28;20037;-60
2021/05/10 00:12:39;;;;;;;1.30;0.60;;;;;;;;;;5030671;28;20045;-60
2021/05/10 00:15:05;;;;;;;0.77;0.63;;;;;;;;;;5063571;28;20434;-60
2021/05/10 00:17:30;;;;;;;0.90;0.70;;;;;;;;;;5030768;28;20490;-61
2021/05/10 00:19:56;;;;;;;0.50;0.50;;;;;;;;;;5031960;28;20034;-60
2021/05/10 00:22:21;;;;;;;2.90;0.70;;;;;;;;;;5031999;28;20482;-60
2021/05/10 00:24:47;;;;;;;2.63;0.80;;;;;;;;;;5048368;28;20052;-60
2021/05/10 00:27:13;;;;;;;1.50;0.70;;;;;;;;;;5049356;28;20033;-60
2021/05/10 00:29:38;;;;;;;1.10;0.60;;;;;;;;;;5030861;28;20070;-60
2021/05/10 00:32:04;;;;;;;1.05;0.52;;;;;;;;;;5039376;28;20030;-60
2021/05/10 00:34:29;;;;;;;1.35;0.80;;;;;;;;;;5012286;28;20128;-60
2021/05/10 00:36:55;;;;;;;3.20;1.15;;;;;;;;;;5032991;28;20030;-60
2021/05/10 00:39:21;;;;;;;0.95;0.65;;;;;;;;;;5031917;27;20040;-61
2021/05/10 00:41:46;;;;;;;1.77;0.80;;;;;;;;;;5064713;28;20092;-60
2021/05/10 00:44:12;;;;;;;0.60;0.50;;;;;;;;;;5031720;28;20538;-60
2021/05/10 00:46:37;;;;;;;1.48;0.57;;;;;;;;;;5033326;28;20084;-60
2021/05/10 00:49:04;;;;;;;1.67;0.57;;;;;;;;;;5015010;28;20765;-60
2021/05/10 00:51:29;;;;;;;2.13;0.88;;;;;;;;;;5029881;28;20034;-61
2021/05/10 00:53:55;;;;;;;1.55;0.63;;;;;;;;;;5032310;28;20045;-61
2021/05/10 00:56:20;;;;;;;2.17;0.60;;;;;;;;;;5032144;28;20048;-60
2021/05/10 00:58:46;;;;;;;1.48;0.60;;;;;;;;;;5031926;28;20129;-60
2021/05/10 01:01:11;;;;;;;0.70;0.70;;;;;;;;;;5030372;28;20552;-60
2021/05/10 01:03:37;;;;;;;0.90;0.60;;;;;;;;;;5033506;28;20056;-60
2021/05/10 01:06:02;;;;;;;1.63;0.60;;;;;;;;;;5013858;28;20121;-60
2021/05/10 01:08:28;;;;;;;1.27;0.80;;;;;;;;;;5032567;28;20040;-61
2021/05/10 01:10:53;;;;;;;1.58;0.70;;;;;;;;;;5031224;28;20021;-61
2021/05/10 01:13:19;;;;;;;1.88;0.60;;;;;;;;;;5031984;28;20041;-60
2021/05/10 01:15:48;;;;;;;1.00;0.63;;;;;;;;;;5032625;28;20040;-61
2021/05/10 01:18:13;;;;;;;0.85;0.50;;;;;;;;;;5032539;28;20053;-60
2021/05/10 01:20:40;;;;;;;1.80;0.65;;;;;;;;;;5047190;28;22362;-61
2021/05/10 01:23:06;;;;;;;1.10;0.70;;;;;;;;;;5035261;28;20068;-61
2021/05/10 01:25:32;;;;;;;1.45;0.70;;;;;;;;;;5032994;28;20049;-61
2021/05/10 01:27:58;;;;;;;1.25;0.77;;;;;;;;;;5032272;28;20037;-60
2021/05/10 01:30:34;;;;;;;0.77;0.60;;;;;;;;;;5030837;28;20050;-60
2021/05/10 01:33:00;;;;;;;1.55;0.70;;;;;;;;;;5032098;28;20064;-60
2021/05/10 01:35:27;;;;;;;3.08;0.90;;;;;;;;;;5032968;28;20139;-60
2021/05/10 01:37:53;;;;;;;0.60;0.60;;;;;;;;;;5017119;28;20498;-60
2021/05/10 01:40:18;;;;;;;0.60;0.60;;;;;;;;;;5033979;28;20041;-60
2021/05/10 01:42:44;;;;;;;1.80;0.75;;;;;;;;;;5047081;28;20036;-60
2021/05/10 01:45:10;;;;;;;0.85;0.60;;;;;;;;;;5030090;28;20034;-60
2021/05/10 01:47:36;;;;;;;1.60;1.00;;;;;;;;;;5030783;28;20030;-60
2021/05/10 01:50:14;;;;;;;2.28;0.80;;;;;;;;;;5032874;28;20034;-60
2021/05/10 01:52:40;;;;;;;1.58;0.85;;;;;;;;;;5045378;28;20077;-60
2021/05/10 01:55:06;;;;;;;0.98;0.60;;;;;;;;;;5030793;28;20054;-60
2021/05/10 01:57:31;;;;;;;0.73;0.57;;;;;;;;;;5031235;28;20424;-60
2021/05/10 01:59:57;;;;;;;0.93;0.70;;;;;;;;;;5018879;28;20053;-61
2021/05/10 02:02:22;;;;;;;2.22;0.93;;;;;;;;;;5032050;28;20116;-60
2021/05/10 02:05:11;;;;;;;1.05;0.70;;;;;;;;;;5040290;28;20167;-60
2021/05/10 02:07:41;;;;;;;1.05;0.60;;;;;;;;;;5038847;28;20042;-61
2021/05/10 02:10:09;;;;;;;2.65;0.90;;;;;;;;;;5037394;28;20030;-60
2021/05/10 02:12:34;;;;;;;2.95;0.80;;;;;;;;;;5029886;28;20081;-60
2021/05/10 02:15:00;;;;;;;0.70;0.63;;;;;;;;;;5032157;28;20395;-61
2021/05/10 02:17:25;;;;;;;1.25;0.60;;;;;;;;;;5031762;28;20441;-61
2021/05/10 02:19:51;;;;;;;0.98;0.70;;;;;;;;;;5029944;28;20426;-60
2021/05/10 02:22:16;;;;;;;0.85;0.65;;;;;;;;;;5029139;28;20044;-60
2021/05/10 02:24:41;;;;;;;1.27;0.68;;;;;;;;;;5047469;28;20040;-60
2021/05/10 02:27:07;;;;;;;1.38;0.80;;;;;;;;;;5029969;28;20051;-60
2021/05/10 02:29:32;;;;;;;0.75;0.63;;;;;;;;;;5031207;28;20032;-60
2021/05/10 02:31:58;;;;;;;0.63;0.60;;;;;;;;;;5032135;28;20034;-60
2021/05/10 02:34:23;;;;;;;1.85;0.82;;;;;;;;;;5031289;28;20496;-61
2021/05/10 02:36:49;;;;;;;0.93;0.65;;;;;;;;;;5031300;28;20034;-60
2021/05/10 02:39:15;;;;;;;1.58;0.63;;;;;;;;;;5035201;28;20038;-60
2021/05/10 02:41:41;;;;;;;2.05;0.60;;;;;;;;;;5029589;28;20037;-61
2021/05/10 02:44:07;;;;;;;1.00;0.60;;;;;;;;;;5029547;28;20034;-61
2021/05/10 02:46:32;;;;;;;0.85;0.70;;;;;;;;;;5029960;28;20821;-60
2021/05/10 02:48:57;;;;;;;1.25;0.73;;;;;;;;;;5030499;28;20474;-61
2021/05/10 02:51:23;;;;;;;0.98;0.65;;;;;;;;;;5031701;28;20036;-60
2021/05/10 02:53:49;;;;;;;1.45;0.70;;;;;;;;;;5032171;28;20049;-61
2021/05/10 02:56:14;;;;;;;0.93;0.65;;;;;;;;;;5030589;28;20044;-60
2021/05/10 02:58:40;;;;;;;1.42;0.70;;;;;;;;;;5030664;28;20038;-61
2021/05/10 03:01:05;;;;;;;1.92;0.77;;;;;;;;;;5030356;28;20622;-61
2021/05/10 03:03:31;;;;;;;2.60;0.73;;;;;;;;;;5036664;28;20025;-61
2021/05/10 03:05:56;;;;;;;0.70;0.70;;;;;;;;;;5027456;28;20048;-60
2021/05/10 03:08:22;;;;;;;1.42;0.90;;;;;;;;;;5030418;28;20046;-60
2021/05/10 03:10:47;;;;;;;1.25;0.70;;;;;;;;;;5031155;28;20445;-60
2021/05/10 03:13:13;;;;;;;1.05;0.75;;;;;;;;;;5059863;28;20045;-61
2021/05/10 03:15:38;;;;;;;1.75;0.80;;;;;;;;;;5030399;28;20046;-60
2021/05/10 03:18:04;;;;;;;1.35;0.80;;;;;;;;;;5029206;28;20038;-61
2021/05/10 03:20:29;;;;;;;0.70;0.70;;;;;;;;;;5031148;28;20481;-60
2021/05/10 03:22:56;;;;;;;1.23;0.70;;;;;;;;;;5029778;28;20076;-61
2021/05/10 03:25:21;;;;;;;1.30;0.70;;;;;;;;;;5031787;28;20041;-61
2021/05/10 03:27:47;;;;;;;1.55;0.80;;;;;;;;;;5034229;28;20890;-60
2021/05/10 03:30:20;;;;;;;1.13;0.70;;;;;;;;;;5029542;28;20103;-60
2021/05/10 03:32:46;;;;;;;1.15;0.70;;;;;;;;;;5034301;28;20553;-60
2021/05/10 03:35:12;;;;;;;1.50;0.63;;;;;;;;;;5031028;28;20125;-60
2021/05/10 03:37:37;;;;;;;0.82;0.60;;;;;;;;;;5035950;28;20064;-60
2021/05/10 03:40:04;;;;;;;0.88;0.65;;;;;;;;;;5035603;28;20218;-60
2021/05/10 03:42:30;;;;;;;2.53;0.70;;;;;;;;;;5031410;28;20100;-60
2021/05/10 03:44:55;;;;;;;2.28;0.88;;;;;;;;;;5033259;28;20029;-60
2021/05/10 03:47:21;;;;;;;0.82;0.73;;;;;;;;;;5033844;28;20480;-60
2021/05/10 03:49:46;;;;;;;1.25;0.70;;;;;;;;;;5032826;28;20100;-61
2021/05/10 03:52:12;;;;;;;1.70;0.77;;;;;;;;;;5032889;28;20041;-60
2021/05/10 03:54:39;;;;;;;1.00;0.70;;;;;;;;;;5066072;28;20045;-61
2021/05/10 03:57:04;;;;;;;1.08;0.88;;;;;;;;;;5033140;28;20099;-61
2021/05/10 03:59:30;;;;;;;2.85;0.77;;;;;;;;;;5032126;28;20088;-60
2021/05/10 04:01:58;;;;;;;1.58;0.80;;;;;;;;;;5034176;28;20069;-61
2021/05/10 04:04:49;;;;;;;1.67;0.98;;;;;;;;;;5033283;28;20614;-60
2021/05/10 04:07:28;;;;;;;1.38;0.90;;;;;;;;;;5033123;28;20050;-60
2021/05/10 04:15:12;;;;;;;1.52;0.88;;;;;;;;;;5032945;28;20046;-60
2021/05/10 04:17:38;;;;;;;0.88;0.80;;;;;;;;;;5033325;28;20029;-61
2021/05/10 04:20:03;;;;;;;1.63;0.82;;;;;;;;;;5022877;28;20963;-61
2021/05/10 04:22:29;;;;;;;0.80;0.73;;;;;;;;;;5032731;28;20189;-61
2021/05/10 04:24:54;;;;;;;2.90;0.80;;;;;;;;;;5032873;28;21078;-60
2021/05/10 04:27:20;;;;;;;1.75;1.00;;;;;;;;;;5037372;28;20026;-60
2021/05/10 04:29:45;;;;;;;2.10;0.88;;;;;;;;;;5046979;28;20041;-60
2021/05/10 04:32:11;;;;;;;2.05;1.00;;;;;;;;;;5031550;28;20397;-60
2021/05/10 04:34:36;;;;;;;2.15;0.70;;;;;;;;;;5032190;28;20052;-60
2021/05/10 04:37:02;;;;;;;1.33;0.80;;;;;;;;;;5032026;28;20034;-60
2021/05/10 04:39:27;;;;;;;1.42;0.90;;;;;;;;;;5031035;28;20029;-60
2021/05/10 04:41:53;;;;;;;2.53;0.90;;;;;;;;;;5031911;28;20215;-60
2021/05/10 04:44:18;;;;;;;1.10;0.90;;;;;;;;;;5030625;28;20421;-60
2021/05/10 04:46:43;;;;;;;2.00;1.00;;;;;;;;;;5065066;28;20030;-60
2021/05/10 04:49:09;;;;;;;1.75;0.90;;;;;;;;;;5029812;28;20488;-60
2021/05/10 04:51:34;;;;;;;2.50;0.93;;;;;;;;;;5030288;28;20096;-60
2021/05/10 04:54:00;;;;;;;1.13;0.77;;;;;;;;;;5031222;28;20050;-61
2021/05/10 04:56:25;;;;;;;0.95;0.70;;;;;;;;;;5031946;28;20041;-60
2021/05/10 04:58:51;;;;;;;1.63;0.90;;;;;;;;;;5031762;28;20088;-60
2021/05/10 05:01:16;;;;;;;1.20;0.80;;;;;;;;;;5031570;28;20022;-60
2021/05/10 05:03:42;;;;;;;0.93;0.70;;;;;;;;;;5031049;28;20476;-60
2021/05/10 05:06:07;;;;;;;3.10;0.98;;;;;;;;;;5023572;28;20043;-60
2021/05/10 05:08:33;;;;;;;0.88;0.60;;;;;;;;;;5032955;28;20072;-60
2021/05/10 05:10:58;;;;;;;0.70;0.70;;;;;;;;;;5031687;28;20025;-60
2021/05/10 05:13:25;;;;;;;1.90;0.90;;;;;;;;;;5031574;28;20057;-61
2021/05/10 05:15:50;;;;;;;0.98;0.75;;;;;;;;;;5029548;28;20029;-60
2021/05/10 05:18:16;;;;;;;1.60;0.85;;;;;;;;;;5063278;28;20847;-60
2021/05/10 05:20:42;;;;;;;1.83;0.80;;;;;;;;;;5030246;28;20160;-60
2021/05/10 05:23:24;;;;;;;1.38;0.88;;;;;;;;;;5030812;28;20448;-60
2021/05/10 05:26:00;;;;;;;2.05;0.90;;;;;;;;;;5055399;28;20112;-61
2021/05/10 05:28:27;;;;;;;1.48;0.90;;;;;;;;;;5031569;28;20040;-60
2021/05/10 05:30:55;;;;;;;2.67;0.82;;;;;;;;;;5046653;28;20162;-61
2021/05/10 05:33:21;;;;;;;2.13;1.02;;;;;;;;;;5028608;28;20034;-60
2021/05/10 05:35:46;;;;;;;1.00;0.82;;;;;;;;;;5064366;28;20496;-60
2021/05/10 05:38:12;;;;;;;1.38;0.82;;;;;;;;;;5030862;28;20048;-60
2021/05/10 05:40:41;;;;;;;1.88;0.88;;;;;;;;;;5029422;28;20034;-61
2021/05/10 05:43:08;;;;;;;1.75;0.90;;;;;;;;;;5063651;28;20026;-61
2021/05/10 05:45:35;;;;;;;1.25;0.80;;;;;;;;;;5033338;28;20490;-61
2021/05/10 05:48:02;;;;;;;1.45;0.82;;;;;;;;;;5030299;28;20030;-60
2021/05/10 05:50:27;;;;;;;1.75;0.90;;;;;;;;;;5031644;28;20088;-61
2021/05/10 05:52:53;;;;;;;0.98;0.77;;;;;;;;;;5040135;28;20541;-60
2021/05/10 05:55:19;;;;;;;1.42;0.75;;;;;;;;;;5030393;28;20065;-61
2021/05/10 05:57:45;;;;;;;1.80;0.80;;;;;;;;;;5030660;28;20058;-61
2021/05/10 06:00:11;;;;;;;2.90;0.80;;;;;;;;;;5013667;28;20041;-61
2021/05/10 06:02:36;;;;;;;1.30;0.80;;;;;;;;;;5032354;28;20042;-61
2021/05/10 06:05:02;;;;;;;0.75;0.60;;;;;;;;;;5033385;28;20033;-60
2021/05/10 06:07:28;;;;;;;0.80;0.70;;;;;;;;;;5030611;28;20124;-60
2021/05/10 06:09:53;;;;;;;0.93;0.70;;;;;;;;;;5029760;28;20033;-60
2021/05/10 06:12:19;;;;;;;1.23;0.70;;;;;;;;;;5030900;28;20749;-60
2021/05/10 06:14:44;;;;;;;0.90;0.68;;;;;;;;;;5033530;27;20437;-60
2021/05/10 06:17:10;;;;;;;1.17;0.73;;;;;;;;;;5029534;28;20041;-60
2021/05/10 06:19:35;;;;;;;1.67;0.70;;;;;;;;;;5032440;28;20034;-61
2021/05/10 06:22:01;;;;;;;1.63;0.77;;;;;;;;;;5030110;28;20038;-61
2021/05/10 06:24:26;;;;;;;0.80;0.60;;;;;;;;;;5031751;28;20100;-61
2021/05/10 06:26:52;;;;;;;2.05;0.73;;;;;;;;;;5033073;28;20477;-61
2021/05/10 06:29:17;;;;;;;1.95;0.90;;;;;;;;;;5031580;28;20038;-61
2021/05/10 06:31:43;;;;;;;2.60;0.90;;;;;;;;;;5016812;28;20037;-60
2021/05/10 06:34:08;;;;;;;0.95;0.70;;;;;;;;;;5023180;28;20045;-61
2021/05/10 06:36:34;;;;;;;2.53;1.10;;;;;;;;;;5027949;28;20177;-61
2021/05/10 06:38:59;;;;;;;0.65;0.60;;;;;;;;;;5033218;28;20044;-61
2021/05/10 06:41:25;;;;;;;2.25;0.77;;;;;;;;;;5029596;28;20034;-61
2021/05/10 06:43:50;;;;;;;3.20;0.90;;;;;;;;;;5029337;28;20081;-61
2021/05/10 06:46:16;;;;;;;1.30;0.77;;;;;;;;;;5029757;28;20099;-61
2021/05/10 06:48:41;;;;;;;0.93;0.63;;;;;;;;;;5063814;28;20045;-60
2021/05/10 06:51:06;;;;;;;1.40;0.70;;;;;;;;;;5030668;28;20034;-61
2021/05/10 06:53:32;;;;;;;1.45;0.90;;;;;;;;;;5031108;28;20038;-60
2021/05/10 06:55:58;;;;;;;1.00;0.80;;;;;;;;;;5029664;28;20045;-61
2021/05/10 06:58:23;;;;;;;3.08;0.60;;;;;;;;;;5028576;28;20079;-61
2021/05/10 07:00:53;;;;;;;2.35;1.00;;;;;;;;;;5062098;28;20255;-60
2021/05/10 07:03:19;;;;;;;1.98;0.90;;;;;;;;;;5031452;28;20038;-61
2021/05/10 07:05:44;;;;;;;1.98;0.93;;;;;;;;;;5036665;28;20566;-60
2021/05/10 07:08:11;;;;;;;0.73;0.60;;;;;;;;;;5028791;28;20410;-61
2021/05/10 07:10:36;;;;;;;1.50;0.90;;;;;;;;;;5030758;28;20973;-61
2021/05/10 07:13:02;;;;;;;1.95;0.82;;;;;;;;;;5030947;28;20029;-61
2021/05/10 07:15:27;;;;;;;0.88;0.73;;;;;;;;;;5032858;28;20506;-60
2021/05/10 07:18:03;;;;;;;3.05;0.98;;;;;;;;;;5033451;28;20033;-61
2021/05/10 07:20:29;;;;;;;2.35;0.70;;;;;;;;;;5031489;28;20060;-60
2021/05/10 07:22:55;;;;;;;1.48;0.77;;;;;;;;;;5032302;28;20508;-61
2021/05/10 07:25:21;;;;;;;0.77;0.70;;;;;;;;;;5035355;28;20037;-61
2021/05/10 07:27:47;;;;;;;1.92;0.90;;;;;;;;;;5032106;28;20042;-61
2021/05/10 07:30:13;;;;;;;1.77;0.80;;;;;;;;;;5032486;28;20072;-60
2021/05/10 07:32:38;;;;;;;2.80;1.08;;;;;;;;;;5034251;28;20599;-61
2021/05/10 07:35:04;;;;;;;3.10;0.88;;;;;;;;;;5031968;28;20044;-61
2021/05/10 07:37:29;;;;;;;0.70;0.70;;;;;;;;;;5030310;28;20129;-61
2021/05/10 07:39:55;;;;;;;1.33;0.80;;;;;;;;;;5031612;28;20036;-61
2021/05/10 07:42:20;;;;;;;2.38;0.70;;;;;;;;;;5032022;28;20415;-61
2021/05/10 07:44:46;;;;;;;2.03;0.80;;;;;;;;;;5032928;28;20410;-61
2021/05/10 07:47:12;;;;;;;0.82;0.75;;;;;;;;;;5034501;28;20037;-61
2021/05/10 07:49:38;;;;;;;0.70;0.70;;;;;;;;;;5033675;28;20561;-61
2021/05/10 07:52:04;;;;;;;1.63;0.88;;;;;;;;;;5033098;28;20033;-61
2021/05/10 07:54:29;;;;;;;1.58;0.98;;;;;;;;;;5034562;28;20034;-61
2021/05/10 07:56:56;;;;;;;1.33;0.85;;;;;;;;;;5032225;28;20037;-61
2021/05/10 07:59:21;;;;;;;1.33;0.70;;;;;;;;;;5031495;28;20087;-61
2021/05/10 08:01:48;;;;;;;2.25;0.70;;;;;;;;;;5032918;28;20556;-61
2021/05/10 08:04:14;;;;;;;1.77;0.70;;;;;;;;;;5032974;28;20060;-61
2021/05/10 08:06:39;;;;;;;0.68;0.60;;;;;;;;;;5031903;28;20068;-60
2021/05/10 08:09:05;;;;;;;1.33;0.70;;;;;;;;;;5033419;28;20053;-61
2021/05/10 08:11:31;;;;;;;0.77;0.65;;;;;;;;;;5032132;28;20633;-61
2021/05/10 08:13:57;;;;;;;1.25;0.80;;;;;;;;;;5032062;28;20615;-61
2021/05/10 08:16:23;;;;;;;2.17;0.90;;;;;;;;;;5065807;28;20032;-62
2021/05/10 08:18:48;;;;;;;1.15;0.60;;;;;;;;;;5032961;28;20057;-61
2021/05/10 08:21:13;;;;;;;1.77;0.70;;;;;;;;;;5032570;28;20046;-60
2021/05/10 08:23:39;;;;;;;2.35;0.90;;;;;;;;;;5032579;28;20033;-61
2021/05/10 08:26:05;;;;;;;1.10;0.60;;;;;;;;;;5032797;28;20033;-61
2021/05/10 08:28:31;;;;;;;0.93;0.70;;;;;;;;;;5032022;28;20037;-61
2021/05/10 08:30:57;;;;;;;0.60;0.50;;;;;;;;;;5032814;28;20033;-60
2021/05/10 08:33:22;;;;;;;1.35;0.80;;;;;;;;;;5040039;28;20117;-61
2021/05/10 08:35:48;;;;;;;0.52;0.50;;;;;;;;;;5063019;28;20037;-61
2021/05/10 08:38:13;;;;;;;0.68;0.60;;;;;;;;;;5032028;28;20080;-60
2021/05/10 08:40:39;;;;;;;2.08;0.80;;;;;;;;;;5033435;28;20049;-61
2021/05/10 08:43:16;;;;;;;1.20;0.60;;;;;;;;;;5032980;28;20030;-61
2021/05/10 08:45:42;;;;;;;1.23;0.60;;;;;;;;;;5033484;28;20037;-61
2021/05/10 08:48:10;;;;;;;0.93;0.57;;;;;;;;;;5032308;28;20951;-61
2021/05/10 08:50:36;;;;;;;2.55;0.70;;;;;;;;;;5030479;28;20029;-61
2021/05/10 08:53:01;;;;;;;1.70;0.93;;;;;;;;;;5031992;28;20458;-60
2021/05/10 08:55:26;;;;;;;2.30;0.80;;;;;;;;;;5031176;28;20053;-61
2021/05/10 08:57:52;;;;;;;2.42;0.70;;;;;;;;;;5032592;28;20040;-61
2021/05/10 09:00:18;;;;;;;1.25;0.70;;;;;;;;;;5031630;28;20089;-61
2021/05/10 09:02:44;;;;;;;1.80;0.93;;;;;;;;;;5031456;28;20291;-60
2021/05/10 09:05:20;;;;;;;1.55;0.70;;;;;;;;;;5032377;28;20478;-61
2021/05/10 09:08:03;;;;;;;3.28;0.90;;;;;;;;;;5017071;28;20046;-60
2021/05/10 09:10:29;;;;;;;1.40;0.70;;;;;;;;;;5029956;28;20577;-61
2021/05/10 09:12:56;;;;;;;0.82;0.55;;;;;;;;;;5031496;28;20125;-61
2021/05/10 09:15:24;;;;;;;1.83;0.73;;;;;;;;;;5035306;28;20548;-60
2021/05/10 09:18:01;;;;;;;2.28;0.70;;;;;;;;;;5031211;28;20045;-60
2021/05/10 09:20:31;;;;;;;1.17;0.70;;;;;;;;;;5029973;28;20045;-60
2021/05/10 09:22:59;;;;;;;1.52;0.75;;;;;;;;;;5033522;28;20576;-61
2021/05/10 09:25:31;;;;;;;1.63;0.85;;;;;;;;;;5031373;28;20026;-60
2021/05/10 09:28:16;;;;;;;2.08;0.73;;;;;;;;;;5033756;28;20530;-60
2021/05/10 09:30:55;;;;;;;1.38;0.70;;;;;;;;;;5035494;28;20536;-61
2021/05/10 09:33:25;;;;;;;1.20;0.70;;;;;;;;;;5044275;28;20040;-61
2021/05/10 09:36:05;;;;;;;1.35;0.60;;;;;;;;;;5027372;28;20037;-60
2021/05/10 09:38:31;;;;;;;1.60;0.57;;;;;;;;;;5054825;28;20061;-60
2021/05/10 09:40:59;;;;;;;2.08;0.80;;;;;;;;;;5029387;28;20051;-61
2021/05/10 09:43:26;;;;;;;0.47;0.47;;;;;;;;;;5012763;28;20921;-60
2021/05/10 09:45:54;;;;;;;0.70;0.60;;;;;;;;;;5030118;28;20087;-61
2021/05/10 09:48:29;;;;;;;1.15;0.47;;;;;;;;;;5031924;28;20064;-61
2021/05/10 09:50:55;;;;;;;1.05;0.70;;;;;;;;;;5046110;28;20042;-61
2021/05/10 09:53:33;;;;;;;0.82;0.50;;;;;;;;;;5031941;28;20038;-61
2021/05/10 09:56:00;;;;;;;0.88;0.60;;;;;;;;;;5031808;28;20645;-60
2021/05/10 09:58:39;;;;;;;1.70;0.60;;;;;;;;;;5032018;28;20041;-61
2021/05/10 10:01:04;;;;;;;3.13;0.75;;;;;;;;;;5039599;28;20033;-61
2021/05/10 10:03:35;;;;;;;0.85;0.60;;;;;;;;;;5029682;28;20517;-61
2021/05/10 10:06:03;;;;;;;1.07;0.70;;;;;;;;;;5064831;28;20060;-60
2021/05/10 10:08:29;;;;;;;0.77;0.57;;;;;;;;;;5032612;28;20033;-61
2021/05/10 10:10:55;;;;;;;0.85;0.65;;;;;;;;;;5034419;28;20021;-61
2021/05/10 10:13:21;;;;;;;1.00;0.80;;;;;;;;;;5032784;28;20120;-61
2021/05/10 10:15:47;;;;;;;0.70;0.60;;;;;;;;;;5032061;28;20033;-61
2021/05/10 10:18:15;;;;;;;2.05;0.60;;;;;;;;;;5031354;28;20033;-60
2021/05/10 10:20:41;;;;;;;1.20;0.70;;;;;;;;;;5028467;28;20038;-61
2021/05/10 10:23:07;;;;;;;0.82;0.55;;;;;;;;;;5012144;28;20038;-60
2021/05/10 10:25:34;;;;;;;1.42;0.60;;;;;;;;;;5031519;28;20030;-61
2021/05/10 10:27:59;;;;;;;0.65;0.65;;;;;;;;;;5039364;28;20038;-60
2021/05/10 10:30:25;;;;;;;1.25;0.60;;;;;;;;;;5013325;28;20041;-60
2021/05/10 10:32:50;;;;;;;2.13;0.68;;;;;;;;;;5032254;28;20034;-61
2021/05/10 10:35:16;;;;;;;0.50;0.50;;;;;;;;;;5045045;28;20041;-61
2021/05/10 10:37:41;;;;;;;1.20;0.68;;;;;;;;;;5028385;28;20488;-60
2021/05/10 10:40:18;;;;;;;1.27;0.55;;;;;;;;;;5027546;28;20029;-60
2021/05/10 10:42:43;;;;;;;2.50;0.60;;;;;;;;;;5027837;28;20041;-61
2021/05/10 10:45:11;;;;;;;1.10;0.70;;;;;;;;;;5018397;28;20030;-60
2021/05/10 10:47:52;;;;;;;0.68;0.50;;;;;;;;;;5029907;28;20034;-61
2021/05/10 10:50:21;;;;;;;1.07;0.67;;;;;;;;;;5029368;28;20516;-61
2021/05/10 10:52:57;;;;;;;0.90;0.52;;;;;;;;;;5029049;28;20057;-60
2021/05/10 10:55:27;;;;;;;1.38;0.52;;;;;;;;;;5030754;28;20056;-60
2021/05/10 10:58:26;;;;;;;1.00;0.57;;;;;;;;;;5028381;28;20060;-61
2021/05/10 11:01:11;;;;;;;1.80;0.70;;;;;;;;;;5039376;28;20084;-61
2021/05/10 11:03:37;;;;;;;1.48;0.60;;;;;;;;;;5029721;28;20046;-61
2021/05/10 11:06:04;;;;;;;0.50;0.50;;;;;;;;;;5029867;28;20045;-60
2021/05/10 11:08:39;;;;;;;1.17;0.60;;;;;;;;;;5029696;28;20109;-61
2021/05/10 11:11:07;;;;;;;0.70;0.50;;;;;;;;;;5035560;28;20081;-60
2021/05/10 11:13:38;;;;;;;1.73;0.60;;;;;;;;;;5033409;28;20030;-60
2021/05/10 11:16:11;;;;;;;1.02;0.60;;;;;;;;;;5044856;28;20085;-60
2021/05/10 11:19:02;;;;;;;1.05;0.60;;;;;;;;;;5030069;28;20041;-60
2021/05/10 11:21:28;;;;;;;0.65;0.50;;;;;;;;;;5031712;28;20599;-60
2021/05/10 11:23:54;;;;;;;1.08;0.60;;;;;;;;;;5030180;28;20033;-61
2021/05/10 11:26:39;;;;;;;1.15;0.50;;;;;;;;;;5029482;28;20323;-60
2021/05/10 11:29:26;;;;;;;1.42;0.70;;;;;;;;;;5062472;28;20036;-61
2021/05/10 11:31:54;;;;;;;0.75;0.60;;;;;;;;;;5030698;28;20057;-61
2021/05/10 11:34:24;;;;;;;1.85;0.60;;;;;;;;;;5031140;28;20037;-60
2021/05/10 11:36:52;;;;;;;2.33;0.63;;;;;;;;;;5028870;28;20044;-61
2021/05/10 11:39:28;;;;;;;0.73;0.60;;;;;;;;;;5030344;28;20109;-61
2021/05/10 11:42:00;;;;;;;1.70;0.73;;;;;;;;;;5032423;28;20041;-61
2021/05/10 11:44:35;;;;;;;0.93;0.60;;;;;;;;;;5063129;28;20085;-61
2021/05/10 11:47:11;;;;;;;1.13;0.70;;;;;;;;;;5061938;28;20041;-61
2021/05/10 11:49:38;;;;;;;0.82;0.57;;;;;;;;;;5030475;28;20045;-61
2021/05/10 11:52:08;;;;;;;1.15;0.50;;;;;;;;;;5031583;28;20030;-60
2021/05/10 11:54:34;;;;;;;0.50;0.50;;;;;;;;;;5029262;28;20037;-60
2021/05/10 11:57:02;;;;;;;1.85;0.70;;;;;;;;;;5029682;28;20514;-61
2021/05/10 11:59:46;;;;;;;0.93;0.60;;;;;;;;;;5030480;28;20029;-60
2021/05/10 12:02:18;;;;;;;1.42;0.52;;;;;;;;;;5031882;28;20513;-61
2021/05/10 12:04:51;;;;;;;0.65;0.40;;;;;;;;;;5047906;28;20395;-60
2021/05/10 12:07:17;;;;;;;0.77;0.55;;;;;;;;;;5033283;28;20565;-61
2021/05/10 12:09:45;;;;;;;0.85;0.60;;;;;;;;;;5030149;28;20504;-61
2021/05/10 12:12:13;;;;;;;1.17;0.55;;;;;;;;;;5033073;28;20935;-61
2021/05/10 12:14:40;;;;;;;1.63;0.40;;;;;;;;;;5031428;28;20064;-60
2021/05/10 12:17:10;;;;;;;0.47;0.40;;;;;;;;;;5032322;28;20493;-60
2021/05/10 12:20:09;;;;;;;1.17;0.50;;;;;;;;;;5035303;28;20092;-61
2021/05/10 12:22:39;;;;;;;0.75;0.47;;;;;;;;;;5034599;28;20041;-60
2021/05/10 12:25:12;;;;;;;2.05;0.40;;;;;;;;;;5032975;28;20162;-61
2021/05/10 12:27:38;;;;;;;0.95;0.47;;;;;;;;;;5047974;28;20575;-60
2021/05/10 12:30:31;;;;;;;0.35;0.35;;;;;;;;;;5040860;28;20041;-61
2021/05/10 12:33:07;;;;;;;0.65;0.47;;;;;;;;;;5031757;28;20044;-60
2021/05/10 12:35:35;;;;;;;1.05;0.40;;;;;;;;;;5032269;28;20557;-61
2021/05/10 12:38:01;;;;;;;0.50;0.40;;;;;;;;;;5063706;28;20045;-61
2021/05/10 12:40:28;;;;;;;0.60;0.30;;;;;;;;;;5031598;28;20395;-61
2021/05/10 12:43:04;;;;;;;1.20;0.50;;;;;;;;;;5032165;28;20422;-61
2021/05/10 12:45:30;;;;;;;0.80;0.43;;;;;;;;;;5033162;28;20090;-60
2021/05/10 12:47:57;;;;;;;0.40;0.40;;;;;;;;;;5031891;28;20429;-61
2021/05/10 12:50:57;;;;;;;2.08;0.75;;;;;;;;;;5031783;28;20037;-60
2021/05/10 12:53:41;;;;;;;0.82;0.35;;;;;;;;;;5052577;28;20053;-61
2021/05/10 12:56:11;;;;;;;0.60;0.57;;;;;;;;;;5030141;28;20049;-61
2021/05/10 12:58:40;;;;;;;0.63;0.45;;;;;;;;;;5031234;28;20334;-61
2021/05/10 13:01:15;;;;;;;0.30;0.30;;;;;;;;;;5033518;28;20829;-61
2021/05/10 13:03:40;;;;;;;1.05;0.50;;;;;;;;;;5033356;28;20941;-60
2021/05/10 13:06:06;;;;;;;1.35;0.40;;;;;;;;;;5032273;28;20084;-61
2021/05/10 13:08:38;;;;;;;0.98;0.40;;;;;;;;;;5032877;28;20641;-61
2021/05/10 13:11:03;;;;;;;0.47;0.40;;;;;;;;;;5024200;28;20984;-61
2021/05/10 13:13:45;;;;;;;0.52;0.43;;;;;;;;;;5030669;28;20042;-61
2021/05/10 13:20:12;;;;;;;1.42;0.40;;;;;;;;;;5033175;28;20555;-61
2021/05/10 13:33:07;;;;;;;0.40;0.40;;;;;;;;;;5032515;28;20431;-60
2021/05/10 13:35:39;;;;;;;0.40;0.40;;;;;;;;;;5032088;28;20049;-59
2021/05/10 13:38:05;;;;;;;1.25;0.40;;;;;;;;;;5034851;28;20033;-60
2021/05/10 13:40:31;;;;;;;0.50;0.50;;;;;;;;;;5032685;28;20030;-60
2021/05/10 13:43:06;;;;;;;0.45;0.40;;;;;;;;;;5030453;28;20038;-60
2021/05/10 13:45:31;;;;;;;0.57;0.40;;;;;;;;;;5031812;28;20675;-60
2021/05/10 13:47:57;;;;;;;0.65;0.40;;;;;;;;;;5061064;28;20111;-60
2021/05/10 13:50:22;;;;;;;1.23;0.40;;;;;;;;;;5032609;28;20042;-60
2021/05/10 13:52:48;;;;;;;0.30;0.22;;;;;;;;;;5064014;28;20030;-60
2021/05/10 13:55:13;;;;;;;0.80;0.57;;;;;;;;;;5032097;28;20046;-60
2021/05/10 13:57:39;;;;;;;0.40;0.30;;;;;;;;;;5030517;28;20404;-60
2021/05/10 14:00:05;;;;;;;1.27;0.30;;;;;;;;;;5032270;28;20037;-60
2021/05/10 14:02:30;;;;;;;1.15;0.60;;;;;;;;;;5030188;28;20050;-60
2021/05/10 14:04:56;;;;;;;0.82;0.40;;;;;;;;;;5031938;28;20037;-60
2021/05/10 14:07:21;;;;;;;0.32;0.32;;;;;;;;;;5034835;28;20202;-60
2021/05/10 14:09:47;;;;;;;0.80;0.30;;;;;;;;;;5034343;28;20193;-60
2021/05/10 14:12:12;;;;;;;0.38;0.38;;;;;;;;;;5030866;28;20406;-60
2021/05/10 14:14:38;;;;;;;0.65;0.35;;;;;;;;;;5031292;28;20036;-60
2021/05/10 14:17:03;;;;;;;0.35;0.30;;;;;;;;;;5030902;28;20575;-60
2021/05/10 14:19:30;;;;;;;0.47;0.30;;;;;;;;;;5031252;28;20021;-60
2021/05/10 14:21:59;;;;;;;0.70;0.30;;;;;;;;;;5029588;28;20517;-60
2021/05/10 14:24:24;;;;;;;0.40;0.40;;;;;;;;;;5033297;28;20096;-60
2021/05/10 14:26:50;;;;;;;1.50;0.40;;;;;;;;;;5012047;28;20097;-60
2021/05/10 14:29:16;;;;;;;0.30;0.30;;;;;;;;;;5064567;28;20038;-61
2021/05/10 14:31:41;;;;;;;0.40;0.30;;;;;;;;;;5034383;28;20030;-60
2021/05/10 14:34:08;;;;;;;1.42;0.50;;;;;;;;;;5030163;28;20042;-59
2021/05/10 14:36:34;;;;;;;1.65;0.45;;;;;;;;;;5046432;28;20102;-60
2021/05/10 14:39:04;;;;;;;1.48;0.50;;;;;;;;;;5030704;28;20849;-60
2021/05/10 14:41:29;;;;;;;1.05;0.50;;;;;;;;;;5038807;28;20049;-60
2021/05/10 14:43:55;;;;;;;0.55;0.40;;;;;;;;;;5033133;28;20049;-59
2021/05/10 14:46:21;;;;;;;0.30;0.30;;;;;;;;;;5031267;27;20038;-60
2021/05/10 14:48:46;;;;;;;0.80;0.40;;;;;;;;;;5037810;28;20029;-60
2021/05/10 14:51:12;;;;;;;0.40;0.40;;;;;;;;;;5030059;28;20105;-60
2021/05/10 14:53:37;;;;;;;0.28;0.25;;;;;;;;;;5046541;28;20030;-60
2021/05/10 14:56:03;;;;;;;0.60;0.30;;;;;;;;;;5029887;28;20720;-60
2021/05/10 14:58:29;;;;;;;0.57;0.50;;;;;;;;;;5029951;28;20033;-60
2021/05/10 15:00:54;;;;;;;0.52;0.38;;;;;;;;;;5030749;28;20523;-60
2021/05/10 15:03:20;;;;;;;0.57;0.35;;;;;;;;;;5062706;28;20696;-61
2021/05/10 15:05:46;;;;;;;0.40;0.38;;;;;;;;;;5031522;28;20049;-60